Data for 06/25/2005

Time Sea-Level Adjusted Pressure Absolute Pressure Temperature Relative Humidity Dew Point   
(mb) (inHg) (mb) (inHg) (C) (F) (%) (C) (F)
00:05 1015 29.97 844 24.92 13.9 57 61 6.6 44
00:10 1015 29.97 844 24.92 13.9 56.9 61 6.6 43.8
00:15 1015 29.97 844 24.92 14 57.1 61 6.5 43.7
00:20 1015 29.97 844 24.92 14 57.1 62 6.8 44.3
00:25 1015 29.97 844 24.92 13.8 56.8 63 6.9 44.4
00:30 1015 29.97 844 24.92 13.6 56.4 63 6.6 43.9
00:35 1015 29.97 844 24.92 13.5 56.4 63 6.6 43.9
00:40 1015 29.97 844 24.92 13.6 56.4 63 6.7 44
00:45 1015 29.97 844 24.92 13.6 56.5 63 6.8 44.2
00:50 1015 29.97 844 24.92 13.7 56.7 62 6.7 44.1
00:55 1015 29.97 844 24.92 13.7 56.6 62 6.6 43.9
01:00 1015 29.97 844 24.92 13.5 56.4 65 7 44.7
01:05 1015 29.97 844 24.92 13.1 55.6 65 6.7 44.1
01:10 1015 29.97 844 24.92 13.1 55.5 65 6.7 44
01:15 1015 29.97 844 24.92 13.1 55.5 65 6.7 44
01:20 1015 29.97 844 24.92 13 55.4 66 6.8 44.2
01:25 1015 29.97 844 24.92 13.1 55.5 65 6.8 44.2
01:30 1015 29.97 844 24.92 13 55.4 65 6.7 44
01:35 1015 29.97 844 24.92 13.2 55.7 64 6.5 43.8
01:40 1015 29.97 844 24.92 13.3 56 64 6.6 43.9
01:45 1015 29.97 844 24.92 13.2 55.8 64 6.7 44.1
01:50 1015 29.97 844 24.92 13.3 55.9 64 6.7 44.1
01:55 1015 29.97 844 24.92 13.3 55.9 64 6.7 44
02:00 1015 29.97 844 24.92 13.1 55.7 64 6.7 44
02:05 1015 29.97 844 24.92 13.1 55.5 65 6.7 44
02:10 1015 29.97 844 24.92 13.1 55.7 64 6.5 43.7
02:15 1015 29.97 844 24.92 13.2 55.8 63 6.4 43.4
02:20 1015 29.97 844 24.92 13.3 55.9 66 7 44.7
02:25 1015 29.97 844 24.92 13.2 55.7 65 6.8 44.2
02:30 1015 29.97 844 24.92 12.9 55.3 65 6.6 43.8
02:35 1015 29.97 844 24.92 12.9 55.3 65 6.5 43.7
02:40 1015 29.97 844 24.92 12.9 55.2 65 6.4 43.6
02:45 1015 29.97 844 24.92 13 55.3 64 6.3 43.3
02:50 1015 29.97 844 24.92 13 55.5 64 6.4 43.6
02:55 1015 29.97 844 24.92 12.8 55.1 66 6.8 44.2
03:00 1015 29.97 844 24.92 12.5 54.5 66 6.4 43.5
03:05 1015 29.97 844 24.92 12.6 54.6 65 6.2 43.2
03:10 1015 29.97 844 24.92 12.7 54.8 66 6.5 43.7
03:15 1015 29.97 844 24.92 12.8 55.1 65 6.4 43.6
03:20 1015 29.97 844 24.92 13.2 55.7 62 6.1 42.9
03:25 1015 29.97 844 24.92 13.3 55.9 63 6.5 43.7
03:30 1015 29.97 844 24.92 13 55.3 63 6.2 43.1
03:35 1015 29.97 844 24.92 13 55.3 64 6.3 43.3
03:40 1015 29.97 844 24.92 12.8 55.1 64 6.3 43.3
03:45 1015 29.97 844 24.92 12.6 54.7 65 6.3 43.4
03:50 1015 29.97 844 24.92 12.3 54.2 66 6.3 43.4
03:55 1014 29.94 844 24.92 12.3 54.2 66 6.2 43.2
04:00 1015 29.97 844 24.92 12.3 54.1 65 6.1 42.9
04:05 1015 29.97 844 24.92 12.3 54.1 67 6.3 43.4
04:10 1015 29.97 844 24.92 12.1 53.8 68 6.4 43.6
04:15 1015 29.97 844 24.92 12.2 53.9 67 6.2 43.2
04:20 1015 29.97 844 24.92 12.3 54.2 66 6.3 43.3
04:25 1015 29.97 844 24.92 12.2 54 67 6.2 43.2
04:30 1015 29.97 844 24.92 12.2 53.9 67 6.3 43.4
04:35 1015 29.97 844 24.92 11.8 53.3 69 6.4 43.6
04:40 1015 29.97 844 24.92 11.5 52.7 70 6.3 43.3
04:45 1015 29.97 844 24.92 11.3 52.4 71 6.2 43.2
04:50 1015 29.97 844 24.92 11.4 52.5 70 6.1 43
04:55 1015 29.97 844 24.92 11.6 52.8 69 6.1 43
05:00 1015 29.97 844 24.92 11.6 52.9 70 6.4 43.6
05:05 1015 29.97 844 24.92 11.2 52.2 71 6.1 43
05:10 1015 29.97 844 24.92 11.1 52 70 5.8 42.5
05:15 1015 29.97 844 24.92 10.9 51.7 71 5.9 42.7
05:20 1015 29.97 844 24.92 10.7 51.3 70 5.4 41.8
05:25 1015 29.97 844 24.92 10.8 51.4 69 5.3 41.6
05:30 1015 29.97 844 24.92 10.7 51.2 70 5.5 41.9
05:35 1015 29.97 844 24.92 10.5 51 72 5.7 42.2
05:40 1015 29.97 844 24.92 10.6 51.1 72 5.8 42.5
05:45 1015 29.97 844 24.92 10.7 51.2 72 5.9 42.6
05:50 1015 29.97 844 24.92 10.6 51.1 73 5.9 42.7
05:55 1015 29.97 844 24.92 10.7 51.3 72 6 42.7
06:00 1015 29.97 844 24.92 10.9 51.6 72 6 42.8
06:05 1015 29.97 844 24.92 11.3 52.4 70 6.1 43
06:10 1014 29.94 844 24.92 11.4 52.4 70 6.1 43
06:15 1014 29.94 844 24.92 11.5 52.7 70 6.2 43.2
06:20 1014 29.94 844 24.92 11.6 52.8 70 6.3 43.3
06:25 1014 29.94 844 24.92 11.8 53.2 69 6.4 43.5
06:30 1014 29.94 844 24.92 11.9 53.4 68 6.2 43.2
06:35 1014 29.94 844 24.92 12.2 53.9 67 6.2 43.1
06:40 1014 29.94 844 24.92 12.4 54.4 66 6.3 43.4
06:45 1014 29.94 844 24.92 12.5 54.6 65 6.2 43.1
06:50 1014 29.94 844 24.92 12.6 54.7 67 6.7 44.1
06:55 1014 29.94 844 24.92 12.4 54.3 67 6.5 43.6
07:00 1014 29.94 844 24.92 12.6 54.6 67 6.7 44.1
07:05 1014 29.94 843 24.89 12.7 54.8 66 6.6 43.9
07:10 1014 29.94 843 24.89 13.1 55.6 62 5.9 42.7
07:15 1014 29.94 844 24.92 13.4 56.2 63 6.7 44
07:20 1014 29.94 844 24.92 13.5 56.4 65 7.2 45
07:25 1014 29.94 844 24.92 13.7 56.6 63 6.8 44.2
07:30 1014 29.94 843 24.89 14 57.2 62 7 44.6
07:35 1014 29.94 843 24.89 14.3 57.7 63 7.5 45.4
07:40 1014 29.94 843 24.89 14.5 58 62 7.4 45.4
07:45 1014 29.94 843 24.89 14.8 58.6 61 7.3 45.2
07:50 1014 29.94 843 24.89 15.1 59.1 62 7.9 46.2
07:55 1014 29.94 843 24.89 15.9 60.6 55 7 44.6
08:00 1014 29.94 843 24.89 16.3 61.4 55 7.5 45.4
08:05 1014 29.94 843 24.89 16.4 61.5 55 7.5 45.5
08:10 1014 29.94 843 24.89 16.2 61.1 57 7.9 46.1
08:15 1014 29.94 843 24.89 16.1 60.9 57 7.7 45.9
08:20 1014 29.94 843 24.89 16.1 60.9 59 8.1 46.6
08:25 1014 29.94 843 24.89 16.2 61.1 58 8.1 46.6
08:30 1014 29.94 843 24.89 16.5 61.7 56 7.8 46
08:35 1014 29.94 843 24.89 16 60.9 57 7.6 45.6
08:40 1014 29.94 843 24.89 15.7 60.2 56 7 44.6
08:45 1014 29.94 843 24.89 15.9 60.6 56 7.2 45
08:50 1014 29.94 843 24.89 16.1 61 54 7 44.5
08:55 1014 29.94 843 24.89 16.4 61.6 52 6.5 43.8
09:00 1014 29.94 843 24.89 17.6 63.7 45 5.8 42.5
09:05 1014 29.94 843 24.89 17.7 63.9 48 6.7 44
09:10 1014 29.94 843 24.89 18.6 65.5 46 7 44.5
09:15 1014 29.94 843 24.89 19.1 66.3 43 6.3 43.3
09:20 1014 29.94 843 24.89 19.3 66.7 43 6.6 43.8
09:25 1014 29.94 843 24.89 19.7 67.5 43 6.8 44.3
09:30 1014 29.94 843 24.89 19.6 67.2 43 6.7 44
09:35 1014 29.94 843 24.89 19.2 66.5 46 7.5 45.5
09:40 1014 29.94 843 24.89 18.5 65.3 46 6.7 44.1
09:45 1014 29.94 843 24.89 18.6 65.5 50 8.1 46.6
09:50 1014 29.94 843 24.89 19.3 66.8 46 7.4 45.4
09:55 1013 29.91 843 24.89 19.3 66.7 48 8 46.4
10:00 1013 29.91 843 24.89 19.9 67.8 45 7.8 46
10:05 1013 29.91 843 24.89 19.5 67 48 8.3 46.9
10:10 1013 29.91 843 24.89 18.9 66 47 7.6 45.7
10:15 1013 29.91 842 24.86 19.8 67.7 44 7.5 45.5
10:20 1013 29.91 842 24.86 20.6 69 45 8.3 46.9
10:25 1013 29.91 842 24.86 20.9 69.6 44 8.3 46.9
10:30 1013 29.91 842 24.86 21 69.8 44 8.4 47.1
10:35 1013 29.91 843 24.89 21.1 69.9 46 9.2 48.5
10:40 1013 29.91 843 24.89 21 69.8 43 8.1 46.5
10:45 1013 29.91 843 24.89 20.8 69.5 43 7.8 46.1
10:50 1013 29.91 843 24.89 20.9 69.5 42 7.6 45.6
10:55 1013 29.91 843 24.89 20.8 69.5 44 8.4 47.2
11:00 1013 29.91 843 24.89 20.8 69.4 45 8.6 47.4
11:05 1013 29.91 843 24.89 21.2 70.1 45 8.8 47.9
11:10 1013 29.91 843 24.89 20.9 69.6 43 8 46.4
11:15 1013 29.91 843 24.89 21.6 70.9 42 8.5 47.2
11:20 1013 29.91 843 24.89 22 71.6 41 8.3 47
11:25 1013 29.91 843 24.89 22.8 73 40 8.7 47.7
11:30 1013 29.91 843 24.89 22.4 72.3 43 9.5 49
11:35 1013 29.91 843 24.89 22 71.7 44 9.2 48.6
11:40 1013 29.91 843 24.89 22 71.5 44 9.4 49
11:45 1013 29.91 843 24.89 22.4 72.3 42 9.1 48.3
11:50 1013 29.91 843 24.89 22.9 73.3 40 8.9 48.1
11:55 1013 29.91 843 24.89 23 73.5 40 8.9 48
12:00 1013 29.91 843 24.89 23.2 73.8 38 8.4 47.1
12:05 1013 29.91 843 24.89 23.4 74.2 39 8.8 47.9
12:10 1013 29.91 843 24.89 23.4 74.2 38 8.4 47.1
12:15 1013 29.91 843 24.89 23.2 73.8 33 6.5 43.6
12:20 1013 29.91 842 24.86 22.7 72.8 36 7 44.5
12:25 1013 29.91 842 24.86 23.3 73.9 35 7.4 45.3
12:30 1013 29.91 842 24.86 23.1 73.7 37 7.9 46.1
12:35 1013 29.91 842 24.86 23.1 73.6 37 7.9 46.2
12:40 1013 29.91 842 24.86 22.7 72.8 38 8 46.4
12:45 1013 29.91 842 24.86 22.1 71.8 40 8 46.4
12:50 1013 29.91 842 24.86 21.9 71.4 40 7.9 46.1
12:55 1013 29.91 842 24.86 21.8 71.2 41 7.9 46.3
13:00 1013 29.91 842 24.86 21.5 70.7 41 7.9 46.3
13:05 1013 29.91 842 24.86 21.5 70.8 41 8 46.4
13:10 1013 29.91 842 24.86 21.4 70.5 47 9.7 49.5
13:15 1013 29.91 842 24.86 20.3 68.6 51 9.9 49.8
13:20 1013 29.91 842 24.86 20 67.9 53 10.1 50.2
13:25 1013 29.91 842 24.86 19.9 67.8 50 9.4 48.9
13:30 1013 29.91 842 24.86 20.1 68.2 49 9.1 48.4
13:35 1013 29.91 842 24.86 20.6 69.1 48 9.5 49.1
13:40 1013 29.91 842 24.86 20.8 69.4 48 9.4 49
13:45 1013 29.91 842 24.86 20.7 69.2 47 9.1 48.4
13:50 1013 29.91 842 24.86 20.3 68.6 54 10.9 51.6
13:55 1013 29.91 842 24.86 20.1 68.2 55 10.8 51.5
14:00 1013 29.91 842 24.86 20.3 68.5 50 9.7 49.5
14:05 1012 29.88 842 24.86 20.2 68.4 50 9.7 49.5
14:10 1012 29.88 842 24.86 20.4 68.7 48 9.2 48.6
14:15 1012 29.88 842 24.86 20.4 68.7 50 9.7 49.5
14:20 1012 29.88 842 24.86 20.4 68.8 51 10.1 50.3
14:25 1012 29.88 842 24.86 20.7 69.3 49 9.7 49.4
14:30 1012 29.88 841 24.83 21.3 70.3 46 9.3 48.7
14:35 1012 29.88 841 24.83 21.5 70.6 45 9.3 48.8
14:40 1012 29.88 841 24.83 21.8 71.3 43 8.8 47.8
14:45 1012 29.88 841 24.83 22.7 72.9 40 8.7 47.7
14:50 1012 29.88 841 24.83 22.8 73 41 9 48.1
14:55 1012 29.88 841 24.83 22.6 72.7 43 9.7 49.4
15:00 1012 29.88 841 24.83 22.3 72.2 44 9.5 49.1
15:05 1012 29.88 841 24.83 22.6 72.6 48 11.2 52.1
15:10 1012 29.88 841 24.83 21.7 71.1 49 10.8 51.4
15:15 1012 29.88 841 24.83 21.7 71 48 10.2 50.4
15:20 1012 29.88 841 24.83 22.1 71.7 46 10 50.1
15:25 1011 29.85 841 24.83 22.4 72.3 46 10.3 50.5
15:30 1011 29.85 841 24.83 22.5 72.4 40 8.4 47
15:35 1011 29.85 840 24.81 22.6 72.8 43 9.5 49.1
15:40 1011 29.85 840 24.81 22.8 73.1 40 8.8 47.9
15:45 1011 29.85 840 24.81 23.1 73.6 40 9.1 48.4
15:50 1011 29.85 840 24.81 23.6 74.4 40 9.5 49.1
15:55 1011 29.85 840 24.81 23.7 74.6 38 8.5 47.4
16:00 1011 29.85 840 24.81 24.1 75.4 39 9.3 48.8
16:05 1011 29.85 840 24.81 24.4 76 38 9.4 48.9
16:10 1011 29.85 840 24.81 25 76.9 39 10.1 50.3
16:15 1011 29.85 840 24.81 23.9 75.1 43 10.8 51.5
16:20 1011 29.85 840 24.81 23.8 74.9 43 10.6 51.2
16:25 1011 29.85 840 24.81 23.3 73.9 45 11 51.9
16:30 1011 29.85 840 24.81 23.2 73.8 44 10.5 50.9
16:35 1011 29.85 840 24.81 23.3 74 44 10.4 50.7
16:40 1011 29.85 840 24.81 24 75.3 42 10.4 50.7
16:45 1011 29.85 840 24.81 24.2 75.6 40 10.1 50.2
16:50 1011 29.85 841 24.83 23.9 75 43 10.8 51.4
16:55 1011 29.85 841 24.83 24 75.1 41 10.1 50.3
17:00 1012 29.88 841 24.83 23.6 74.5 41 9.9 49.9
17:05 1012 29.88 841 24.83 22.7 72.9 43 9.7 49.4
17:10 1012 29.88 841 24.83 22.3 72.1 44 9.6 49.2
17:15 1012 29.88 841 24.83 22.4 72.3 44 9.6 49.3
17:20 1012 29.88 841 24.83 22.4 72.3 45 10.2 50.3
17:25 1012 29.88 841 24.83 22.2 72 47 10.6 51
17:30 1012 29.88 841 24.83 22.1 71.8 50 11.3 52.3
17:35 1012 29.88 841 24.83 22 71.6 50 11.1 52
17:40 1013 29.91 842 24.86 21.9 71.4 48 10.6 51.2
17:45 1013 29.91 842 24.86 21.5 70.7 48 10 50.1
17:50 1013 29.91 842 24.86 21 69.8 45 8.9 47.9
17:55 1013 29.91 842 24.86 20.6 69.1 42 7.3 45.1
18:00 1013 29.91 842 24.86 20.3 68.6 41 6.9 44.4
18:05 1013 29.91 842 24.86 20.1 68.3 40 6.3 43.3
18:10 1013 29.91 843 24.89 19.8 67.6 45 7.7 45.9
18:15 1014 29.94 843 24.89 18.8 65.8 49 8 46.4
18:20 1014 29.94 843 24.89 18.2 64.7 48 7.2 45
18:25 1014 29.94 843 24.89 18.3 65 48 7.3 45.2
18:30 1014 29.94 843 24.89 18.9 65.9 46 7.2 45
18:35 1014 29.94 843 24.89 18.8 65.9 47 7.4 45.3
18:40 1014 29.94 843 24.89 19.2 66.5 46 7.5 45.4
18:45 1014 29.94 843 24.89 19 66.2 48 8 46.4
18:50 1014 29.94 843 24.89 18.4 65.1 53 8.6 47.5
18:55 1014 29.94 843 24.89 17.5 63.5 54 8.3 46.9
19:00 1014 29.94 843 24.89 17.5 63.4 55 8.3 47
19:05 1014 29.94 843 24.89 18.1 64.6 51 8 46.5
19:10 1014 29.94 843 24.89 18.2 64.8 52 8.3 47
19:15 1014 29.94 843 24.89 17.9 64.1 52 8 46.4
19:20 1014 29.94 843 24.89 17.3 63.2 56 8.6 47.5
19:25 1014 29.94 843 24.89 16.9 62.4 57 8.4 47
19:30 1014 29.94 843 24.89 16.7 62 58 8.6 47.5
19:35 1014 29.94 843 24.89 16.5 61.7 56 7.9 46.2
19:40 1014 29.94 844 24.92 16.7 62.1 57 8.2 46.7
19:45 1014 29.94 844 24.92 16.7 62 58 8.4 47.1
19:50 1015 29.97 844 24.92 16.4 61.5 60 8.7 47.7
19:55 1015 29.97 844 24.92 16.3 61.3 60 8.7 47.6
20:00 1015 29.97 844 24.92 16.5 61.6 62 9.3 48.7
20:05 1015 29.97 844 24.92 16.4 61.4 62 9.1 48.3
20:10 1015 29.97 844 24.92 16.2 61.2 59 8.3 47
20:15 1015 29.97 844 24.92 16.1 60.9 66 9.8 49.7
20:20 1015 29.97 844 24.92 15.5 60 69 9.9 49.8
20:25 1015 29.97 844 24.92 15.3 59.5 70 9.9 49.8
20:30 1015 29.97 844 24.92 15.3 59.5 68 9.4 48.9
20:35 1014 29.94 844 24.92 15.3 59.6 67 9.4 48.9
20:40 1015 29.97 844 24.92 15.6 60 69 9.9 49.8
20:45 1015 29.97 844 24.92 15.5 59.9 70 10.2 50.3
20:50 1015 29.97 844 24.92 15.2 59.4 67 9.3 48.7
20:55 1015 29.97 844 24.92 15.1 59.1 71 9.8 49.6
21:00 1015 29.97 844 24.92 15 59 66 8.8 47.9
21:05 1015 29.97 844 24.92 15.1 59.2 69 9.6 49.3
21:10 1015 29.97 844 24.92 14.5 58.1 72 9.6 49.3
21:15 1015 29.97 844 24.92 14.1 57.4 71 9 48.3
21:20 1015 29.97 844 24.92 14.2 57.5 68 8.3 47
21:25 1015 29.97 844 24.92 14.7 58.4 67 8.7 47.6
21:30 1015 29.97 844 24.92 15.1 59.2 65 8.7 47.7
21:35 1015 29.97 844 24.92 15.1 59.1 66 8.9 48.1
21:40 1015 29.97 844 24.92 14.6 58.2 69 9.1 48.4
21:45 1015 29.97 844 24.92 14.3 57.8 69 8.8 47.8
21:50 1015 29.97 844 24.92 14.3 57.8 70 9.1 48.3
21:55 1015 29.97 844 24.92 14.4 57.8 69 8.9 48
22:00 1015 29.97 844 24.92 14.5 58 69 9 48.1
22:05 1015 29.97 844 24.92 14.6 58.2 66 8.3 47
22:10 1015 29.97 844 24.92 14.8 58.6 62 7.7 45.9
22:15 1015 29.97 844 24.92 14.9 58.7 64 8.2 46.7
22:20 1015 29.97 844 24.92 14.7 58.5 64 8.1 46.7
22:25 1015 29.97 844 24.92 14.3 57.7 65 7.9 46.3
22:30 1015 29.97 844 24.92 14.2 57.6 66 8 46.4
22:35 1015 29.97 844 24.92 14 57.2 68 8.4 47
22:40 1015 29.97 844 24.92 13.6 56.5 72 8.6 47.5
22:45 1015 29.97 844 24.92 13.4 56 70 8.1 46.5
22:50 1015 29.97 844 24.92 13.4 56 70 8.1 46.6
22:55 1015 29.97 844 24.92 13.4 56 71 8.1 46.7
23:00 1015 29.97 844 24.92 13.4 56.1 70 8 46.4
23:05 1015 29.97 844 24.92 13.3 55.9 71 8.1 46.6
23:10 1015 29.97 844 24.92 13.3 55.9 68 7.4 45.4
23:15 1015 29.97 844 24.92 13.4 56.1 69 7.8 46.1
23:20 1015 29.97 844 24.92 13.2 55.8 70 7.9 46.2
23:25 1015 29.97 844 24.92 13.2 55.8 69 7.6 45.8
23:30 1015 29.97 844 24.92 13.3 55.9 68 7.5 45.5
23:35 1015 29.97 844 24.92 13.3 56 67 7.5 45.4
23:40 1015 29.97 844 24.92 13.3 55.9 68 7.5 45.4
23:45 1015 29.97 844 24.92 13.4 56.1 66 7.2 45
23:50 1015 29.97 844 24.92 13.6 56.4 67 7.5 45.5
23:55 1015 29.97 844 24.92 13.6 56.5 66 7.4 45.3
24:00 1015 29.97 844 24.92 13.7 56.7 65 7.4 45.3